• Join FlightAware (Why Join?)
  • Login
  • US Flag 
05:41PM EDT


 

Airport Tracker/Info


-or-


 

Live Flight TrackerFlight Track Log ✈ QJE6200 ✈ 28-Oct-2013 ✈ YPKG / KGI - YPPH / PER

Flight Track Log - Related Links

Times and Time Zones

All times are in EDT time to prevent confusion due to time zone crossing. See the QJE6200 flight status page for this flight to view local times or setup timezone preferences in your user account.

Time Position Orientation Groundspeed Altitude Reporting Facility
EDT Latitude Longitude Course Direction KTS MPH feet Rate Location/Type
07:56PM -30.8277 121.4007 241° Southwest 27,400  Level Aus ATC (Calculated)
07:57PM -30.8548 121.3365 240° Southwest 27,400 720 Level Aus ATC (Calculated)
07:59PM -30.9767 121.1022 239° Southwest  Level FlightAware Approximate
08:00PM -31.0462 120.9681 239° Southwest  Level FlightAware Approximate
08:00PM -30.9891 121.0865 241° Southwest 27,400  Level Aus ATC (Calculated)
08:02PM -31.1105 120.8486 239° Southwest  Level FlightAware Approximate
08:02PM -31.0829 120.8969 242° Southwest 27,400  Level Aus ATC (Calculated)
08:03PM -31.1176 120.8345 242° Southwest 27,400 1,620 Level Aus ATC (Calculated)
08:05PM -31.2420 120.5891 239° Southwest  Level FlightAware Approximate
08:05PM -31.2126 120.6447 244° Southwest 27,400  Level Aus ATC (Calculated)
08:06PM -31.2773 120.5184 246° West 27,400 4,080 Level Aus ATC (Calculated)
08:06PM -31.2776 120.5185 246° West 27,400 7,500 Level Aus ATC (Calculated)
08:07PM -31.3797 120.2460 239° Southwest 442 509 35,200 4,020 Climbing Aus ATC (RADAR)
08:08PM -31.4528 120.0589 245° Southwest 441 507 36,200 600 Climbing Aus ATC (RADAR)
08:09PM -31.4800 119.9927 244° Southwest 444 511 36,400 120 Climbing Aus ATC (RADAR)
08:09PM -31.5123 119.9042 247° West 441 507 36,400  Level Aus ATC (RADAR)
08:10PM -31.5546 119.7930 246° West 444 511 36,400  Level Aus ATC (RADAR)
08:11PM -31.5801 119.7256 246° West 448 516 36,400  Level Aus ATC (RADAR)
08:11PM -31.6214 119.6139 246° West 446 513 36,400  Level Aus ATC (RADAR)
08:12PM -31.6343 119.5805 246° West 442 509 36,400  Level Aus ATC (RADAR)
08:13PM -31.7056 119.3900 246° West 445 512 36,400  Level Aus ATC (RADAR)
08:13PM -31.7173 119.3564 248° West 442 509 36,400  Level Aus ATC (RADAR)
08:14PM -31.7466 119.2784 246° West 444 511 36,400  Level Aus ATC (RADAR)
08:15PM -31.7892 119.1664 246° West 443 510 36,400  Level Aus ATC (RADAR)
08:15PM -31.8170 119.0881 247° West 439 505 36,400 -120 Level Aus ATC (RADAR)
08:16PM -31.8628 118.9654 246° West 445 512 36,300 -120 Descending Aus ATC (RADAR)
08:17PM -31.8878 118.8978 246° West 446 513 36,300  Level Aus ATC (RADAR)
08:18PM -31.9685 118.6740 247° West 438 504 36,300  Level Aus ATC (RADAR)
08:19PM -31.9903 118.6173 246° West 445 512 36,300  Level Aus ATC (RADAR)
08:19PM -32.0179 118.5387 248° West 440 506 36,300  Level Aus ATC (RADAR)
08:20PM -32.0510 118.4480 247° West 446 513 36,300  Level Aus ATC (RADAR)
08:21PM -32.0839 118.3578 247° West 443 510 36,300  Level Aus ATC (RADAR)
08:21PM -32.1245 118.2580 244° Southwest 443 510 36,300  Level Aus ATC (RADAR)
08:22PM -32.1472 118.2026 244° Southwest 444 511 36,300  Level Aus ATC (RADAR)
08:23PM -32.2234 118.0130 245° Southwest 447 514 36,300  Level Aus ATC (RADAR)
08:24PM -32.2499 117.9464 245° Southwest 444 511 36,300  Level Aus ATC (RADAR)
08:24PM -32.2802 117.8678 245° Southwest 445 512 36,300 -1,080 Level Aus ATC (RADAR)
08:25PM -32.3206 117.7674 244° Southwest 440 506 34,900 -2,580 Descending Aus ATC (RADAR)
08:26PM -32.3429 117.6864 252° West 441 507 32,900 -3,420 Descending Aus ATC (RADAR)
08:26PM -32.3433 117.5752 270° West 443 510 30,400 -3,300 Descending Aus ATC (RADAR)
08:27PM -32.3311 117.5146 283° West 439 505 29,100 -2,940 Descending Aus ATC (RADAR)
08:28PM -32.2867 117.3409 287° West 417 480 25,500 -2,880 Descending Aus ATC (RADAR)
08:28PM -32.2759 117.2960 286° West 412 474 24,600 -2,880 Descending Aus ATC (RADAR)
08:29PM -32.2575 117.2196 286° West 397 457 22,900 -2,760 Descending Aus ATC (RADAR)
08:30PM -32.2325 117.1159 286° West 378 435 20,700 -2,640 Descending Aus ATC (RADAR)
08:30PM -32.2133 117.0360 286° West 362 417 19,000 -1,920 Descending Aus ATC (RADAR)
08:31PM -32.1901 116.9422 286° West 338 389 17,900 -1,200 Descending Aus ATC (RADAR)
08:32PM -32.1837 116.9169 287° West 323 372 17,700 -1,440 Descending Aus ATC (RADAR)
08:32PM -32.1729 116.8476 280° West 310 357 16,600 -1,860 Descending Aus ATC (RADAR)
08:34PM -32.1546 116.7037 279° West 294 338 13,900 -1,920 Descending Aus ATC (RADAR)
08:34PM -32.1498 116.6635 278° West 286 329 13,100 -1,920 Descending Aus ATC (RADAR)
08:35PM -32.1424 116.6090 279° West 277 319 12,000 -1,800 Descending Aus ATC (RADAR)
08:35PM -32.1333 116.5393 279° West 274 315 10,700 -1,980 Descending Aus ATC (RADAR)
08:36PM -32.1262 116.4863 279° West 267 307 9,400 -1,980 Descending Aus ATC (RADAR)
08:37PM -32.1166 116.4124 279° West 261 300 7,900 -1,860 Descending Aus ATC (RADAR)
08:37PM -32.1115 116.3746 279° West 265 305 7,100 -1,440 Descending Aus ATC (RADAR)
08:38PM -32.0978 116.2734 279° West 250 288 5,700 -1,080 Descending Aus ATC (RADAR)
08:39PM -32.0933 116.2408 279° West 236 272 5,400 -780 Descending Aus ATC (RADAR)
08:39PM -32.0864 116.1907 279° West 226 260 4,900 -780 Descending Aus ATC (RADAR)
08:40PM -32.0799 116.1405 279° West 224 258 4,400 -900 Descending Aus ATC (RADAR)
08:41PM -32.0740 116.0970 279° West 223 257 3,800 -900 Descending Aus ATC (RADAR)
08:42PM -32.0596 116.0350 285° West 200 230 3,100 -900 Descending Aus ATC (RADAR)
08:42PM -32.0562 116.0193 284° West 194 223 2,800 -900 Descending Aus ATC (RADAR)
08:43PM -32.0380 115.9450 286° West 157 181 1,700 -780 Descending Aus ATC (RADAR)
08:44PM -32.0211 115.9418 351° North 132 152 1,400 -780 Descending Aus ATC (RADAR)
08:44PM -32.0070 115.9455 12° North 127 146 1,000 -720 Descending Aus ATC (RADAR)
08:45PM -31.9878 115.9513 14° North 122 140 700 -600 Descending Aus ATC (RADAR)
08:45PM -31.9652 115.9581 14° North 129 148 300 -660 Descending Aus ATC (RADAR)